sensor_id;sensor_type;location;lat;lon;timestamp;pressure;altitude;pressure_sealevel;temperature;humidity
61394;BME280;48555;50.952;-0.120;2023-02-14T00:02:03;102734.16;;;4.91;90.08
61394;BME280;48555;50.952;-0.120;2023-02-14T00:04:29;102728.97;;;4.90;89.83
61394;BME280;48555;50.952;-0.120;2023-02-14T00:06:54;102729.88;;;4.87;90.05
61394;BME280;48555;50.952;-0.120;2023-02-14T00:09:19;102729.03;;;4.87;90.12
61394;BME280;48555;50.952;-0.120;2023-02-14T00:11:45;102734.91;;;4.98;89.87
61394;BME280;48555;50.952;-0.120;2023-02-14T00:14:11;102721.09;;;4.97;89.66
61394;BME280;48555;50.952;-0.120;2023-02-14T00:16:56;102725.47;;;4.92;89.43
61394;BME280;48555;50.952;-0.120;2023-02-14T00:19:21;102734.22;;;4.85;89.86
61394;BME280;48555;50.952;-0.120;2023-02-14T00:21:47;102742.09;;;4.79;89.62
61394;BME280;48555;50.952;-0.120;2023-02-14T00:24:22;102735.25;;;4.75;89.81
61394;BME280;48555;50.952;-0.120;2023-02-14T00:26:49;102731.81;;;4.73;89.68
61394;BME280;48555;50.952;-0.120;2023-02-14T00:29:20;102736.25;;;4.68;89.75
61394;BME280;48555;50.952;-0.120;2023-02-14T00:31:46;102743.97;;;4.69;89.90
61394;BME280;48555;50.952;-0.120;2023-02-14T00:34:13;102730.13;;;4.70;89.86
61394;BME280;48555;50.952;-0.120;2023-02-14T00:36:39;102725.78;;;4.74;89.82
61394;BME280;48555;50.952;-0.120;2023-02-14T00:39:06;102712.09;;;4.66;89.58
61394;BME280;48555;50.952;-0.120;2023-02-14T00:41:32;102731.72;;;4.81;89.50
61394;BME280;48555;50.952;-0.120;2023-02-14T00:43:58;102729.13;;;4.79;89.35
61394;BME280;48555;50.952;-0.120;2023-02-14T00:46:24;102716.22;;;4.77;89.15
61394;BME280;48555;50.952;-0.120;2023-02-14T00:48:50;102730.81;;;4.83;88.83
61394;BME280;48555;50.952;-0.120;2023-02-14T00:51:16;102722.25;;;4.78;88.52
61394;BME280;48555;50.952;-0.120;2023-02-14T00:53:43;102726.63;;;4.74;88.52
61394;BME280;48555;50.952;-0.120;2023-02-14T00:56:08;102727.50;;;4.73;88.33
61394;BME280;48555;50.952;-0.120;2023-02-14T00:58:34;102725.78;;;4.72;88.51
61394;BME280;48555;50.952;-0.120;2023-02-14T01:00:59;102730.94;;;4.75;88.41
61394;BME280;48555;50.952;-0.120;2023-02-14T01:03:25;102727.47;;;4.76;88.08
61394;BME280;48555;50.952;-0.120;2023-02-14T01:05:51;102724.00;;;4.77;88.23
61394;BME280;48555;50.952;-0.120;2023-02-14T01:08:17;102717.13;;;4.73;87.97
61394;BME280;48555;50.952;-0.120;2023-02-14T01:10:43;102725.84;;;4.71;87.99
61394;BME280;48555;50.952;-0.120;2023-02-14T01:13:09;102721.41;;;4.77;87.85
61394;BME280;48555;50.952;-0.120;2023-02-14T01:15:41;102714.47;;;4.78;87.74
61394;BME280;48555;50.952;-0.120;2023-02-14T01:18:06;102710.19;;;4.75;87.28
61394;BME280;48555;50.952;-0.120;2023-02-14T01:20:32;102711.03;;;4.77;87.29
61394;BME280;48555;50.952;-0.120;2023-02-14T01:22:57;102719.66;;;4.78;86.90
61394;BME280;48555;50.952;-0.120;2023-02-14T01:25:23;102706.69;;;4.78;86.81
61394;BME280;48555;50.952;-0.120;2023-02-14T01:27:48;102712.78;;;4.75;86.66
61394;BME280;48555;50.952;-0.120;2023-02-14T01:30:14;102701.66;;;4.69;86.52
61394;BME280;48555;50.952;-0.120;2023-02-14T01:32:39;102701.69;;;4.67;86.43
61394;BME280;48555;50.952;-0.120;2023-02-14T01:35:05;102707.75;;;4.66;86.68
61394;BME280;48555;50.952;-0.120;2023-02-14T01:37:30;102717.28;;;4.66;86.41
61394;BME280;48555;50.952;-0.120;2023-02-14T01:39:56;102706.81;;;4.70;86.12
61394;BME280;48555;50.952;-0.120;2023-02-14T01:42:21;102699.97;;;4.68;86.07
61394;BME280;48555;50.952;-0.120;2023-02-14T01:47:12;102703.38;;;4.70;85.53
61394;BME280;48555;50.952;-0.120;2023-02-14T01:49:42;102706.91;;;4.66;85.42
61394;BME280;48555;50.952;-0.120;2023-02-14T01:52:44;102715.56;;;4.63;85.77
61394;BME280;48555;50.952;-0.120;2023-02-14T01:55:12;102713.91;;;4.59;85.39
61394;BME280;48555;50.952;-0.120;2023-02-14T01:57:44;102711.44;;;4.51;85.47
61394;BME280;48555;50.952;-0.120;2023-02-14T02:00:13;102707.28;;;4.40;85.27
61394;BME280;48555;50.952;-0.120;2023-02-14T02:02:58;102718.53;;;4.37;85.53
61394;BME280;48555;50.952;-0.120;2023-02-14T02:05:24;102714.22;;;4.38;85.41
61394;BME280;48555;50.952;-0.120;2023-02-14T02:07:51;102707.38;;;4.32;85.05
61394;BME280;48555;50.952;-0.120;2023-02-14T02:10:18;102691.97;;;4.23;85.04
61394;BME280;48555;50.952;-0.120;2023-02-14T02:12:44;102698.97;;;4.18;85.44
61394;BME280;48555;50.952;-0.120;2023-02-14T02:15:09;102697.25;;;4.18;85.41
61394;BME280;48555;50.952;-0.120;2023-02-14T02:20:27;102691.03;;;4.28;84.92
61394;BME280;48555;50.952;-0.120;2023-02-14T02:40:42;102692.69;;;4.36;84.76
61394;BME280;48555;50.952;-0.120;2023-02-14T02:43:05;102687.50;;;4.36;84.51
61394;BME280;48555;50.952;-0.120;2023-02-14T02:51:31;102678.00;;;4.35;84.23
61394;BME280;48555;50.952;-0.120;2023-02-14T02:54:36;102681.44;;;4.37;84.17
61394;BME280;48555;50.952;-0.120;2023-02-14T02:57:06;102684.91;;;4.36;84.09
61394;BME280;48555;50.952;-0.120;2023-02-14T02:59:39;102678.00;;;4.36;83.94
61394;BME280;48555;50.952;-0.120;2023-02-14T03:02:12;102679.78;;;4.31;83.64
61394;BME280;48555;50.952;-0.120;2023-02-14T03:04:46;102677.31;;;4.22;83.76
61394;BME280;48555;50.952;-0.120;2023-02-14T03:18:09;102666.50;;;3.91;83.66
61394;BME280;48555;50.952;-0.120;2023-02-14T03:21:48;102664.09;;;3.80;83.91
61394;BME280;48555;50.952;-0.120;2023-02-14T03:24:24;102663.34;;;3.69;84.02
61394;BME280;48555;50.952;-0.120;2023-02-14T03:26:57;102659.97;;;3.63;84.07
61394;BME280;48555;50.952;-0.120;2023-02-14T03:32:32;102668.66;;;3.58;84.24
61394;BME280;48555;50.952;-0.120;2023-02-14T03:37:48;102671.22;;;3.59;84.10
61394;BME280;48555;50.952;-0.120;2023-02-14T03:40:36;102666.94;;;3.55;83.89
61394;BME280;48555;50.952;-0.120;2023-02-14T03:43:09;102660.06;;;3.53;84.08
61394;BME280;48555;50.952;-0.120;2023-02-14T03:45:39;102659.22;;;3.52;84.09
61394;BME280;48555;50.952;-0.120;2023-02-14T03:48:10;102661.00;;;3.49;83.81
61394;BME280;48555;50.952;-0.120;2023-02-14T03:50:38;102658.47;;;3.42;83.72
61394;BME280;48555;50.952;-0.120;2023-02-14T03:53:06;102654.22;;;3.37;84.08
61394;BME280;48555;50.952;-0.120;2023-02-14T03:55:43;102657.66;;;3.39;84.04
61394;BME280;48555;50.952;-0.120;2023-02-14T03:58:24;102660.16;;;3.48;83.62
61394;BME280;48555;50.952;-0.120;2023-02-14T04:00:56;102655.78;;;3.52;83.26
61394;BME280;48555;50.952;-0.120;2023-02-14T04:03:25;102661.84;;;3.49;83.24
61394;BME280;48555;50.952;-0.120;2023-02-14T04:05:52;102657.66;;;3.39;83.38
61394;BME280;48555;50.952;-0.120;2023-02-14T04:08:22;102667.19;;;3.34;83.18
61394;BME280;48555;50.952;-0.120;2023-02-14T04:10:49;102660.28;;;3.34;83.29
61394;BME280;48555;50.952;-0.120;2023-02-14T04:13:15;102665.53;;;3.28;83.53
61394;BME280;48555;50.952;-0.120;2023-02-14T04:15:41;102660.44;;;3.21;83.28
61394;BME280;48555;50.952;-0.120;2023-02-14T04:18:07;102668.28;;;3.13;83.55
61394;BME280;48555;50.952;-0.120;2023-02-14T04:20:51;102670.06;;;3.06;84.03
61394;BME280;48555;50.952;-0.120;2023-02-14T04:23:17;102662.31;;;3.05;84.06
61394;BME280;48555;50.952;-0.120;2023-02-14T04:25:42;102666.66;;;3.01;84.03
61394;BME280;48555;50.952;-0.120;2023-02-14T04:28:09;102671.81;;;3.03;84.20
61394;BME280;48555;50.952;-0.120;2023-02-14T04:30:35;102664.94;;;3.03;84.42
61394;BME280;48555;50.952;-0.120;2023-02-14T04:33:02;102660.56;;;3.08;84.65
61394;BME280;48555;50.952;-0.120;2023-02-14T04:35:27;102669.09;;;3.16;84.38
61394;BME280;48555;50.952;-0.120;2023-02-14T04:37:53;102657.84;;;3.24;84.12
61394;BME280;48555;50.952;-0.120;2023-02-14T04:40:18;102660.38;;;3.27;84.02
61394;BME280;48555;50.952;-0.120;2023-02-14T04:42:44;102654.38;;;3.23;84.20
61394;BME280;48555;50.952;-0.120;2023-02-14T04:45:10;102654.38;;;3.23;84.08
61394;BME280;48555;50.952;-0.120;2023-02-14T04:47:35;102657.81;;;3.27;83.97
61394;BME280;48555;50.952;-0.120;2023-02-14T04:50:01;102660.31;;;3.33;83.96
61394;BME280;48555;50.952;-0.120;2023-02-14T04:52:26;102660.25;;;3.37;84.16
61394;BME280;48555;50.952;-0.120;2023-02-14T04:54:51;102654.19;;;3.41;83.94
61394;BME280;48555;50.952;-0.120;2023-02-14T04:57:17;102655.03;;;3.42;83.92
61394;BME280;48555;50.952;-0.120;2023-02-14T04:59:42;102642.97;;;3.41;84.03
61394;BME280;48555;50.952;-0.120;2023-02-14T05:02:07;102659.41;;;3.37;84.20
61394;BME280;48555;50.952;-0.120;2023-02-14T05:04:33;102652.56;;;3.33;84.22
61394;BME280;48555;50.952;-0.120;2023-02-14T05:06:58;102656.81;;;3.37;84.28
61394;BME280;48555;50.952;-0.120;2023-02-14T05:09:23;102656.78;;;3.40;84.33
61394;BME280;48555;50.952;-0.120;2023-02-14T05:11:49;102660.19;;;3.45;84.07
61394;BME280;48555;50.952;-0.120;2023-02-14T05:14:14;102656.63;;;3.52;83.96
61394;BME280;48555;50.952;-0.120;2023-02-14T05:16:39;102654.91;;;3.53;83.68
61394;BME280;48555;50.952;-0.120;2023-02-14T05:19:05;102649.69;;;3.57;83.71
61394;BME280;48555;50.952;-0.120;2023-02-14T05:21:30;102653.97;;;3.58;83.82
61394;BME280;48555;50.952;-0.120;2023-02-14T05:23:58;102647.09;;;3.56;83.63
61394;BME280;48555;50.952;-0.120;2023-02-14T05:26:23;102650.53;;;3.58;83.59
61394;BME280;48555;50.952;-0.120;2023-02-14T05:28:49;102640.19;;;3.59;83.98
61394;BME280;48555;50.952;-0.120;2023-02-14T05:31:14;102635.94;;;3.54;83.61
61394;BME280;48555;50.952;-0.120;2023-02-14T05:33:40;102645.31;;;3.61;83.44
61394;BME280;48555;50.952;-0.120;2023-02-14T05:36:05;102645.31;;;3.62;83.26
61394;BME280;48555;50.952;-0.120;2023-02-14T05:38:31;102648.81;;;3.60;83.25
61394;BME280;48555;50.952;-0.120;2023-02-14T05:40:58;102655.69;;;3.62;83.21
61394;BME280;48555;50.952;-0.120;2023-02-14T05:43:23;102648.84;;;3.55;83.44
61394;BME280;48555;50.952;-0.120;2023-02-14T05:45:50;102661.78;;;3.55;83.51
61394;BME280;48555;50.952;-0.120;2023-02-14T05:48:15;102659.19;;;3.57;83.61
61394;BME280;48555;50.952;-0.120;2023-02-14T05:50:41;102654.88;;;3.59;83.34
61394;BME280;48555;50.952;-0.120;2023-02-14T05:53:07;102665.13;;;3.63;83.47
61394;BME280;48555;50.952;-0.120;2023-02-14T05:55:33;102660.72;;;3.72;82.97
61394;BME280;48555;50.952;-0.120;2023-02-14T05:57:58;102671.88;;;3.77;82.63
61394;BME280;48555;50.952;-0.120;2023-02-14T06:00:24;102668.47;;;3.75;82.76
61394;BME280;48555;50.952;-0.120;2023-02-14T06:02:49;102668.53;;;3.69;82.58
61394;BME280;48555;50.952;-0.120;2023-02-14T06:05:15;102659.19;;;3.57;82.68
61394;BME280;48555;50.952;-0.120;2023-02-14T06:07:42;102660.19;;;3.44;82.72
61394;BME280;48555;50.952;-0.120;2023-02-14T06:10:13;102667.16;;;3.37;82.68
61394;BME280;48555;50.952;-0.120;2023-02-14T06:12:38;102660.44;;;3.24;82.91
61394;BME280;48555;50.952;-0.120;2023-02-14T06:15:04;102666.47;;;3.21;82.86
61394;BME280;48555;50.952;-0.120;2023-02-14T06:17:29;102671.69;;;3.18;83.15
61394;BME280;48555;50.952;-0.120;2023-02-14T06:19:54;102666.59;;;3.07;82.69
61394;BME280;48555;50.952;-0.120;2023-02-14T06:22:20;102661.53;;;2.98;83.04
61394;BME280;48555;50.952;-0.120;2023-02-14T06:24:45;102666.72;;;2.93;82.85
61394;BME280;48555;50.952;-0.120;2023-02-14T06:27:10;102662.47;;;2.89;83.15
61394;BME280;48555;50.952;-0.120;2023-02-14T06:29:36;102665.94;;;2.85;83.32
61394;BME280;48555;50.952;-0.120;2023-02-14T06:32:01;102666.81;;;2.86;83.24
61394;BME280;48555;50.952;-0.120;2023-02-14T06:34:31;102671.97;;;2.84;83.08
61394;BME280;48555;50.952;-0.120;2023-02-14T06:36:57;102676.25;;;2.87;83.30
61394;BME280;48555;50.952;-0.120;2023-02-14T06:39:23;102670.19;;;2.92;83.08
61394;BME280;48555;50.952;-0.120;2023-02-14T06:41:48;102672.78;;;2.92;82.98
61394;BME280;48555;50.952;-0.120;2023-02-14T06:44:13;102669.34;;;2.90;82.96
61394;BME280;48555;50.952;-0.120;2023-02-14T06:46:38;102670.19;;;2.91;82.89
61394;BME280;48555;50.952;-0.120;2023-02-14T06:49:04;102676.16;;;2.99;82.83
61394;BME280;48555;50.952;-0.120;2023-02-14T06:51:29;102671.84;;;3.01;82.82
61394;BME280;48555;50.952;-0.120;2023-02-14T06:53:54;102679.56;;;3.03;82.68
61394;BME280;48555;50.952;-0.120;2023-02-14T06:56:20;102671.00;;;2.96;82.77
61394;BME280;48555;50.952;-0.120;2023-02-14T06:58:45;102675.38;;;2.89;82.87
61394;BME280;48555;50.952;-0.120;2023-02-14T07:01:10;102677.13;;;2.87;82.96
61394;BME280;48555;50.952;-0.120;2023-02-14T07:03:36;102679.75;;;2.81;82.78
61394;BME280;48555;50.952;-0.120;2023-02-14T07:06:01;102680.63;;;2.79;82.71
61394;BME280;48555;50.952;-0.120;2023-02-14T07:08:27;102681.56;;;2.71;82.69
61394;BME280;48555;50.952;-0.120;2023-02-14T07:10:56;102680.75;;;2.65;82.98
61394;BME280;48555;50.952;-0.120;2023-02-14T07:13:22;102676.50;;;2.59;82.86
61394;BME280;48555;50.952;-0.120;2023-02-14T07:15:47;102677.41;;;2.50;83.32
61394;BME280;48555;50.952;-0.120;2023-02-14T07:18:12;102678.34;;;2.39;83.34
61394;BME280;48555;50.952;-0.120;2023-02-14T07:20:38;102676.66;;;2.32;83.56
61394;BME280;48555;50.952;-0.120;2023-02-14T07:23:03;102687.00;;;2.30;83.88
61394;BME280;48555;50.952;-0.120;2023-02-14T07:25:29;102681.88;;;2.25;84.16
61394;BME280;48555;50.952;-0.120;2023-02-14T07:27:54;102685.34;;;2.18;84.27
61394;BME280;48555;50.952;-0.120;2023-02-14T07:30:20;102686.25;;;2.13;84.25
61394;BME280;48555;50.952;-0.120;2023-02-14T07:32:45;102695.69;;;2.14;84.41
61394;BME280;48555;50.952;-0.120;2023-02-14T07:35:11;102693.16;;;2.08;84.68
61394;BME280;48555;50.952;-0.120;2023-02-14T07:37:36;102700.94;;;1.98;84.78
61394;BME280;48555;50.952;-0.120;2023-02-14T07:40:02;102700.97;;;1.91;84.93
61394;BME280;48555;50.952;-0.120;2023-02-14T07:42:28;102695.84;;;1.81;85.53
61394;BME280;48555;50.952;-0.120;2023-02-14T07:44:53;102704.44;;;1.79;85.68
61394;BME280;48555;50.952;-0.120;2023-02-14T07:47:18;102698.44;;;1.78;86.55
61394;BME280;48555;50.952;-0.120;2023-02-14T07:49:44;102706.16;;;1.85;86.35
61394;BME280;48555;50.952;-0.120;2023-02-14T07:52:09;102711.31;;;1.89;86.70
61394;BME280;48555;50.952;-0.120;2023-02-14T07:54:35;102708.72;;;1.88;86.93
61394;BME280;48555;50.952;-0.120;2023-02-14T07:57:00;102706.16;;;1.83;87.63
61394;BME280;48555;50.952;-0.120;2023-02-14T07:59:26;102712.19;;;1.84;88.04
61394;BME280;48555;50.952;-0.120;2023-02-14T08:01:51;102719.03;;;1.88;88.14
61394;BME280;48555;50.952;-0.120;2023-02-14T08:04:17;102716.47;;;1.89;88.59
61394;BME280;48555;50.952;-0.120;2023-02-14T08:06:42;102716.41;;;1.97;88.65
61394;BME280;48555;50.952;-0.120;2023-02-14T08:09:08;102716.41;;;2.03;89.08
61394;BME280;48555;50.952;-0.120;2023-02-14T08:11:35;102719.81;;;2.13;89.46
61394;BME280;48555;50.952;-0.120;2023-02-14T08:14:19;102719.78;;;2.19;89.00
61394;BME280;48555;50.952;-0.120;2023-02-14T08:16:44;102726.59;;;2.26;89.21
61394;BME280;48555;50.952;-0.120;2023-02-14T08:19:10;102721.44;;;2.31;89.38
61394;BME280;48555;50.952;-0.120;2023-02-14T08:21:35;102727.44;;;2.33;89.62
61394;BME280;48555;50.952;-0.120;2023-02-14T08:24:00;102730.00;;;2.37;89.74
61394;BME280;48555;50.952;-0.120;2023-02-14T08:26:26;102730.81;;;2.44;89.91
61394;BME280;48555;50.952;-0.120;2023-02-14T08:28:51;102721.31;;;2.49;89.64
61394;BME280;48555;50.952;-0.120;2023-02-14T08:31:29;102729.88;;;2.53;89.54
61394;BME280;48555;50.952;-0.120;2023-02-14T08:33:55;102723.88;;;2.54;89.58
61394;BME280;48555;50.952;-0.120;2023-02-14T08:36:20;102729.00;;;2.58;89.87
61394;BME280;48555;50.952;-0.120;2023-02-14T08:38:46;102719.53;;;2.56;89.70
61394;BME280;48555;50.952;-0.120;2023-02-14T08:41:16;102726.47;;;2.50;90.10
61394;BME280;48555;50.952;-0.120;2023-02-14T08:43:42;102732.44;;;2.59;90.06
61394;BME280;48555;50.952;-0.120;2023-02-14T08:46:07;102725.53;;;2.64;89.88
61394;BME280;48555;50.952;-0.120;2023-02-14T08:48:34;102729.84;;;2.65;89.93
61394;BME280;48555;50.952;-0.120;2023-02-14T08:51:05;102728.88;;;2.73;90.08
61394;BME280;48555;50.952;-0.120;2023-02-14T08:53:30;102733.16;;;2.79;89.89
61394;BME280;48555;50.952;-0.120;2023-02-14T08:55:55;102723.63;;;2.89;89.92
61394;BME280;48555;50.952;-0.120;2023-02-14T08:58:21;102724.41;;;2.99;90.23
61394;BME280;48555;50.952;-0.120;2023-02-14T09:00:47;102716.59;;;3.06;89.88
61394;BME280;48555;50.952;-0.120;2023-02-14T09:03:12;102721.69;;;3.15;90.07
61394;BME280;48555;50.952;-0.120;2023-02-14T09:05:37;102722.47;;;3.24;90.07
61394;BME280;48555;50.952;-0.120;2023-02-14T09:08:03;102722.41;;;3.30;89.95
61394;BME280;48555;50.952;-0.120;2023-02-14T09:10:28;102719.78;;;3.33;89.90
61394;BME280;48555;50.952;-0.120;2023-02-14T09:12:54;102717.97;;;3.41;89.87
61394;BME280;48555;50.952;-0.120;2023-02-14T09:15:19;102716.19;;;3.48;89.99
61394;BME280;48555;50.952;-0.120;2023-02-14T09:17:45;102704.09;;;3.51;89.85
61394;BME280;48555;50.952;-0.120;2023-02-14T09:20:14;102708.25;;;3.63;89.94
61394;BME280;48555;50.952;-0.120;2023-02-14T09:22:39;102717.59;;;3.78;89.87
61394;BME280;48555;50.952;-0.120;2023-02-14T09:25:05;102711.38;;;3.93;90.17
61394;BME280;48555;50.952;-0.120;2023-02-14T09:27:30;102709.59;;;3.96;89.83
61394;BME280;48555;50.952;-0.120;2023-02-14T09:29:56;102710.41;;;4.01;89.56
61394;BME280;48555;50.952;-0.120;2023-02-14T09:32:21;102710.31;;;4.09;89.52
61394;BME280;48555;50.952;-0.120;2023-02-14T09:34:47;102704.97;;;4.20;90.03
61394;BME280;48555;50.952;-0.120;2023-02-14T09:37:30;102704.97;;;4.20;89.47
61394;BME280;48555;50.952;-0.120;2023-02-14T09:39:56;102704.06;;;4.22;89.65
61394;BME280;48555;50.952;-0.120;2023-02-14T09:45:00;102691.75;;;4.38;90.42
61394;BME280;48555;50.952;-0.120;2023-02-14T09:48:20;102696.78;;;4.50;90.57
61394;BME280;48555;50.952;-0.120;2023-02-14T09:50:45;102696.00;;;4.44;90.06
61394;BME280;48555;50.952;-0.120;2023-02-14T09:58:30;102697.53;;;4.55;90.62
61394;BME280;48555;50.952;-0.120;2023-02-14T10:01:39;102704.28;;;4.67;90.83
61394;BME280;48555;50.952;-0.120;2023-02-14T10:04:13;102700.53;;;4.87;90.85
61394;BME280;48555;50.952;-0.120;2023-02-14T10:12:00;102698.16;;;5.24;91.30
61394;BME280;48555;50.952;-0.120;2023-02-14T10:14:29;102696.25;;;5.34;91.03
61394;BME280;48555;50.952;-0.120;2023-02-14T10:19:34;102688.09;;;5.52;90.98
61394;BME280;48555;50.952;-0.120;2023-02-14T10:22:06;102697.38;;;5.65;90.90
61394;BME280;48555;50.952;-0.120;2023-02-14T10:27:25;102695.28;;;5.83;91.27
61394;BME280;48555;50.952;-0.120;2023-02-14T10:29:53;102690.78;;;5.91;91.47
61394;BME280;48555;50.952;-0.120;2023-02-14T10:32:26;102688.84;;;6.02;91.56
61394;BME280;48555;50.952;-0.120;2023-02-14T10:34:55;102680.13;;;6.06;91.53
61394;BME280;48555;50.952;-0.120;2023-02-14T10:46:12;102682.38;;;6.20;92.56
61394;BME280;48555;50.952;-0.120;2023-02-14T10:48:59;102681.31;;;6.30;92.40
61394;BME280;48555;50.952;-0.120;2023-02-14T10:57:06;102687.22;;;6.73;92.95
61394;BME280;48555;50.952;-0.120;2023-02-14T10:59:56;102681.63;;;6.90;92.83
61394;BME280;48555;50.952;-0.120;2023-02-14T11:02:29;102679.44;;;7.07;92.86
61394;BME280;48555;50.952;-0.120;2023-02-14T11:04:56;102669.56;;;7.20;93.06
61394;BME280;48555;50.952;-0.120;2023-02-14T11:07:21;102679.50;;;7.38;92.92
61394;BME280;48555;50.952;-0.120;2023-02-14T11:09:47;102666.97;;;7.51;93.24
61394;BME280;48555;50.952;-0.120;2023-02-14T11:12:39;102664.75;;;7.68;93.00
61394;BME280;48555;50.952;-0.120;2023-02-14T11:17:40;102657.97;;;7.92;93.33
61394;BME280;48555;50.952;-0.120;2023-02-14T11:22:49;102666.03;;;8.13;93.11
61394;BME280;48555;50.952;-0.120;2023-02-14T11:25:21;102663.78;;;8.29;93.07
61394;BME280;48555;50.952;-0.120;2023-02-14T11:27:49;102661.66;;;8.43;92.77
61394;BME280;48555;50.952;-0.120;2023-02-14T11:30:29;102655.28;;;8.52;92.54
61394;BME280;48555;50.952;-0.120;2023-02-14T11:32:56;102652.47;;;8.58;92.22
61394;BME280;48555;50.952;-0.120;2023-02-14T11:35:23;102654.09;;;8.62;92.12
61394;BME280;48555;50.952;-0.120;2023-02-14T11:37:53;102645.97;;;8.71;91.53
61394;BME280;48555;50.952;-0.120;2023-02-14T11:40:30;102650.03;;;8.80;91.91
61394;BME280;48555;50.952;-0.120;2023-02-14T11:43:17;102649.59;;;8.92;91.81
61394;BME280;48555;50.952;-0.120;2023-02-14T11:45:46;102640.50;;;9.04;91.61
61394;BME280;48555;50.952;-0.120;2023-02-14T11:48:22;102639.34;;;9.11;91.80
61394;BME280;48555;50.952;-0.120;2023-02-14T11:51:10;102631.16;;;9.22;92.16
61394;BME280;48555;50.952;-0.120;2023-02-14T11:53:55;102636.97;;;9.30;92.43
61394;BME280;48555;50.952;-0.120;2023-02-14T11:56:45;102621.84;;;9.38;92.59
61394;BME280;48555;50.952;-0.120;2023-02-14T12:00:03;102620.03;;;9.40;92.94
61394;BME280;48555;50.952;-0.120;2023-02-14T12:02:57;102619.19;;;9.40;92.70
61394;BME280;48555;50.952;-0.120;2023-02-14T12:07:44;102607.28;;;9.56;92.46
61394;BME280;48555;50.952;-0.120;2023-02-14T12:13:07;102608.47;;;9.71;92.67
61394;BME280;48555;50.952;-0.120;2023-02-14T12:21:10;102588.91;;;10.03;92.85
61394;BME280;48555;50.952;-0.120;2023-02-14T12:23:42;102591.03;;;10.15;92.59
61394;BME280;48555;50.952;-0.120;2023-02-14T12:26:28;102586.28;;;10.25;92.28
61394;BME280;48555;50.952;-0.120;2023-02-14T12:29:36;102586.59;;;10.39;92.25
61394;BME280;48555;50.952;-0.120;2023-02-14T12:32:28;102577.66;;;10.45;91.81
61394;BME280;48555;50.952;-0.120;2023-02-14T12:38:19;102580.91;;;10.71;91.85
61394;BME280;48555;50.952;-0.120;2023-02-14T12:51:20;102556.47;;;11.11;90.54
61394;BME280;48555;50.952;-0.120;2023-02-14T12:57:09;102558.47;;;11.44;90.05
61394;BME280;48555;50.952;-0.120;2023-02-14T12:59:39;102560.78;;;11.50;88.55
61394;BME280;48555;50.952;-0.120;2023-02-14T13:11:18;102558.69;;;12.13;83.76
61394;BME280;48555;50.952;-0.120;2023-02-14T13:16:50;102545.31;;;12.35;80.76
61394;BME280;48555;50.952;-0.120;2023-02-14T13:19:37;102547.66;;;12.41;79.90
61394;BME280;48555;50.952;-0.120;2023-02-14T13:22:07;102542.00;;;12.49;79.54
61394;BME280;48555;50.952;-0.120;2023-02-14T13:24:40;102548.19;;;12.48;78.74
61394;BME280;48555;50.952;-0.120;2023-02-14T13:27:11;102535.75;;;12.52;78.88
61394;BME280;48555;50.952;-0.120;2023-02-14T13:29:48;102542.00;;;12.66;78.51
61394;BME280;48555;50.952;-0.120;2023-02-14T13:32:19;102525.03;;;12.73;78.38
61394;BME280;48555;50.952;-0.120;2023-02-14T13:34:46;102521.81;;;12.84;78.26
61394;BME280;48555;50.952;-0.120;2023-02-14T13:37:17;102519.88;;;12.88;77.96
61394;BME280;48555;50.952;-0.120;2023-02-14T13:40:05;102516.16;;;12.92;77.29
61394;BME280;48555;50.952;-0.120;2023-02-14T13:48:07;102512.88;;;13.04;75.86
61394;BME280;48555;50.952;-0.120;2023-02-14T13:50:54;102506.69;;;13.05;74.80
61394;BME280;48555;50.952;-0.120;2023-02-14T13:55:55;102500.69;;;13.19;74.59
61394;BME280;48555;50.952;-0.120;2023-02-14T13:58:22;102501.81;;;13.15;74.43
61394;BME280;48555;50.952;-0.120;2023-02-14T14:00:50;102498.72;;;13.23;74.77
61394;BME280;48555;50.952;-0.120;2023-02-14T14:13:56;102485.13;;;13.32;73.54
61394;BME280;48555;50.952;-0.120;2023-02-14T14:18:49;102484.28;;;13.31;73.00
61394;BME280;48555;50.952;-0.120;2023-02-14T14:21:28;102474.59;;;13.32;72.27
61394;BME280;48555;50.952;-0.120;2023-02-14T14:27:24;102472.25;;;13.27;70.80
61394;BME280;48555;50.952;-0.120;2023-02-14T14:29:51;102461.06;;;13.39;70.05
61394;BME280;48555;50.952;-0.120;2023-02-14T14:32:30;102467.75;;;13.45;68.33
61394;BME280;48555;50.952;-0.120;2023-02-14T14:34:58;102461.38;;;13.49;68.20
61394;BME280;48555;50.952;-0.120;2023-02-14T14:37:35;102447.81;;;13.41;66.53
61394;BME280;48555;50.952;-0.120;2023-02-14T14:40:25;102453.94;;;13.42;66.57
61394;BME280;48555;50.952;-0.120;2023-02-14T14:42:52;102460.63;;;13.47;64.81
61394;BME280;48555;50.952;-0.120;2023-02-14T14:45:25;102450.44;;;13.41;63.50
61394;BME280;48555;50.952;-0.120;2023-02-14T14:47:53;102445.97;;;13.43;63.17
61394;BME280;48555;50.952;-0.120;2023-02-14T14:52:48;102459.34;;;13.54;63.07
61394;BME280;48555;50.952;-0.120;2023-02-14T14:55:40;102456.72;;;13.54;63.28
61394;BME280;48555;50.952;-0.120;2023-02-14T14:58:36;102456.97;;;13.50;62.88
61394;BME280;48555;50.952;-0.120;2023-02-14T15:01:03;102457.66;;;13.53;62.08
61394;BME280;48555;50.952;-0.120;2023-02-14T15:03:29;102448.91;;;13.53;61.86
61394;BME280;48555;50.952;-0.120;2023-02-14T15:06:06;102458.50;;;13.54;61.67
61394;BME280;48555;50.952;-0.120;2023-02-14T15:08:33;102446.72;;;13.45;60.84
61394;BME280;48555;50.952;-0.120;2023-02-14T15:11:21;102446.31;;;13.37;60.06
61394;BME280;48555;50.952;-0.120;2023-02-14T15:14:12;102445.38;;;13.38;60.05
61394;BME280;48555;50.952;-0.120;2023-02-14T15:16:45;102442.75;;;13.38;60.01
61394;BME280;48555;50.952;-0.120;2023-02-14T15:19:23;102450.38;;;13.43;59.72
61394;BME280;48555;50.952;-0.120;2023-02-14T15:21:55;102436.63;;;13.37;59.40
61394;BME280;48555;50.952;-0.120;2023-02-14T15:24:20;102434.28;;;13.33;58.61
61394;BME280;48555;50.952;-0.120;2023-02-14T15:26:46;102434.47;;;13.30;58.34
61394;BME280;48555;50.952;-0.120;2023-02-14T15:31:49;102435.03;;;13.35;58.38
61394;BME280;48555;50.952;-0.120;2023-02-14T15:34:15;102428.75;;;13.37;58.61
61394;BME280;48555;50.952;-0.120;2023-02-14T15:36:42;102435.63;;;13.40;59.06